METAR Data
IDs: Format: Raw Decoded Include TAF

Data at: 1333 UTC 14 Dec 2019

METAR for:KDEH (Decorah Muni, IA, US)
Text:KDEH 141315Z AUTO 33012KT 6SM BR OVC009 M07/M07 A2981 RMK AO2
Temperature: -7.0°C ( 19°F)
Dewpoint: -7.0°C ( 19°F) [RH = 100%]
Pressure (altimeter):29.81 inches Hg (1009.6 mb)
Winds:from the NNW (330 degrees) at 14 MPH (12 knots; 6.2 m/s)
Visibility: 6 sm ( 10 km)
Ceiling:900 feet AGL
Clouds: overcast cloud deck at 900 feet AGL
Weather:BR (mist)
QC Flag:automated observation with no human augmentation